sensor_id;sensor_type;location;lat;lon;timestamp;temperature;humidity
13251;DHT22;6692;50.710;7.180;2023-04-29T00:00:21;14.50;99.90
13251;DHT22;6692;50.710;7.180;2023-04-29T00:02:22;14.50;99.90
13251;DHT22;6692;50.710;7.180;2023-04-29T00:04:23;14.50;99.90
13251;DHT22;6692;50.710;7.180;2023-04-29T00:06:23;14.50;99.90
13251;DHT22;6692;50.710;7.180;2023-04-29T00:08:24;14.50;99.90
13251;DHT22;6692;50.710;7.180;2023-04-29T00:10:25;14.50;99.90
13251;DHT22;6692;50.710;7.180;2023-04-29T00:12:25;14.50;99.90
13251;DHT22;6692;50.710;7.180;2023-04-29T00:14:26;14.50;99.90
13251;DHT22;6692;50.710;7.180;2023-04-29T00:16:27;14.50;99.90
13251;DHT22;6692;50.710;7.180;2023-04-29T00:18:27;14.40;99.90
13251;DHT22;6692;50.710;7.180;2023-04-29T00:20:28;14.40;99.90
13251;DHT22;6692;50.710;7.180;2023-04-29T00:22:29;14.40;99.90
13251;DHT22;6692;50.710;7.180;2023-04-29T00:24:29;14.30;99.90
13251;DHT22;6692;50.710;7.180;2023-04-29T00:26:30;14.30;99.90
13251;DHT22;6692;50.710;7.180;2023-04-29T00:28:30;14.30;99.90
13251;DHT22;6692;50.710;7.180;2023-04-29T00:30:31;14.30;99.90
13251;DHT22;6692;50.710;7.180;2023-04-29T00:32:32;14.20;99.90
13251;DHT22;6692;50.710;7.180;2023-04-29T00:34:32;14.20;99.90
13251;DHT22;6692;50.710;7.180;2023-04-29T00:36:33;14.20;99.90
13251;DHT22;6692;50.710;7.180;2023-04-29T00:38:34;14.20;99.90
13251;DHT22;6692;50.710;7.180;2023-04-29T00:40:35;14.10;99.90
13251;DHT22;6692;50.710;7.180;2023-04-29T00:42:36;14.10;99.90
13251;DHT22;6692;50.710;7.180;2023-04-29T00:44:36;14.10;99.90
13251;DHT22;6692;50.710;7.180;2023-04-29T00:46:37;14.00;99.90
13251;DHT22;6692;50.710;7.180;2023-04-29T00:48:38;14.00;99.90
13251;DHT22;6692;50.710;7.180;2023-04-29T00:50:39;14.00;99.90
13251;DHT22;6692;50.710;7.180;2023-04-29T00:52:39;13.90;99.90
13251;DHT22;6692;50.710;7.180;2023-04-29T00:54:40;13.90;99.90
13251;DHT22;6692;50.710;7.180;2023-04-29T00:56:40;13.80;99.90
13251;DHT22;6692;50.710;7.180;2023-04-29T00:58:42;13.80;99.90
13251;DHT22;6692;50.710;7.180;2023-04-29T01:00:42;13.80;99.90
13251;DHT22;6692;50.710;7.180;2023-04-29T01:02:43;13.70;99.90
13251;DHT22;6692;50.710;7.180;2023-04-29T01:04:43;13.70;99.90
13251;DHT22;6692;50.710;7.180;2023-04-29T01:09:16;13.60;99.90
13251;DHT22;6692;50.710;7.180;2023-04-29T01:11:12;13.60;99.90
13251;DHT22;6692;50.710;7.180;2023-04-29T01:13:16;13.60;99.90
13251;DHT22;6692;50.710;7.180;2023-04-29T01:15:20;13.60;99.90
13251;DHT22;6692;50.710;7.180;2023-04-29T01:17:21;13.60;99.90
13251;DHT22;6692;50.710;7.180;2023-04-29T01:21:44;13.60;99.90
13251;DHT22;6692;50.710;7.180;2023-04-29T01:23:44;13.50;99.90
13251;DHT22;6692;50.710;7.180;2023-04-29T01:25:45;13.50;99.90
13251;DHT22;6692;50.710;7.180;2023-04-29T01:27:51;13.50;99.90
13251;DHT22;6692;50.710;7.180;2023-04-29T01:29:52;13.40;99.90
13251;DHT22;6692;50.710;7.180;2023-04-29T01:31:56;13.40;99.90
13251;DHT22;6692;50.710;7.180;2023-04-29T01:34:07;13.40;99.90
13251;DHT22;6692;50.710;7.180;2023-04-29T01:36:41;13.40;99.90
13251;DHT22;6692;50.710;7.180;2023-04-29T01:38:52;13.40;99.90
13251;DHT22;6692;50.710;7.180;2023-04-29T01:40:58;13.30;99.90
13251;DHT22;6692;50.710;7.180;2023-04-29T01:42:57;13.30;99.90
13251;DHT22;6692;50.710;7.180;2023-04-29T01:44:55;13.30;99.90
13251;DHT22;6692;50.710;7.180;2023-04-29T01:46:56;13.30;99.90
13251;DHT22;6692;50.710;7.180;2023-04-29T01:48:57;13.30;99.90
13251;DHT22;6692;50.710;7.180;2023-04-29T01:50:58;13.30;99.90
13251;DHT22;6692;50.710;7.180;2023-04-29T01:52:58;13.30;99.90
13251;DHT22;6692;50.710;7.180;2023-04-29T01:54:59;13.20;99.90
13251;DHT22;6692;50.710;7.180;2023-04-29T01:57:00;13.20;99.90
13251;DHT22;6692;50.710;7.180;2023-04-29T01:59:00;13.20;99.90
13251;DHT22;6692;50.710;7.180;2023-04-29T02:01:02;13.20;99.90
13251;DHT22;6692;50.710;7.180;2023-04-29T02:03:03;13.20;99.90
13251;DHT22;6692;50.710;7.180;2023-04-29T02:05:03;13.20;99.90
13251;DHT22;6692;50.710;7.180;2023-04-29T02:07:05;13.20;99.90
13251;DHT22;6692;50.710;7.180;2023-04-29T02:09:06;13.20;99.90
13251;DHT22;6692;50.710;7.180;2023-04-29T02:11:06;13.20;99.90
13251;DHT22;6692;50.710;7.180;2023-04-29T02:13:07;13.20;99.90
13251;DHT22;6692;50.710;7.180;2023-04-29T02:15:08;13.20;99.90
13251;DHT22;6692;50.710;7.180;2023-04-29T02:17:09;13.20;99.90
13251;DHT22;6692;50.710;7.180;2023-04-29T02:19:09;13.20;99.90
13251;DHT22;6692;50.710;7.180;2023-04-29T02:21:11;13.10;99.90
13251;DHT22;6692;50.710;7.180;2023-04-29T02:23:11;13.10;99.90
13251;DHT22;6692;50.710;7.180;2023-04-29T02:25:12;13.20;99.90
13251;DHT22;6692;50.710;7.180;2023-04-29T02:27:13;13.20;99.90
13251;DHT22;6692;50.710;7.180;2023-04-29T02:29:13;13.20;99.90
13251;DHT22;6692;50.710;7.180;2023-04-29T02:31:14;13.10;99.90
13251;DHT22;6692;50.710;7.180;2023-04-29T02:33:15;13.10;99.90
13251;DHT22;6692;50.710;7.180;2023-04-29T02:35:15;13.10;99.90
13251;DHT22;6692;50.710;7.180;2023-04-29T02:37:16;13.10;99.90
13251;DHT22;6692;50.710;7.180;2023-04-29T02:39:17;13.10;99.90
13251;DHT22;6692;50.710;7.180;2023-04-29T02:41:17;13.10;99.90
13251;DHT22;6692;50.710;7.180;2023-04-29T02:43:18;13.10;99.90
13251;DHT22;6692;50.710;7.180;2023-04-29T02:45:19;13.00;99.90
13251;DHT22;6692;50.710;7.180;2023-04-29T02:47:19;13.00;99.90
13251;DHT22;6692;50.710;7.180;2023-04-29T02:49:21;12.90;99.90
13251;DHT22;6692;50.710;7.180;2023-04-29T02:51:22;12.90;99.90
13251;DHT22;6692;50.710;7.180;2023-04-29T02:53:23;12.90;99.90
13251;DHT22;6692;50.710;7.180;2023-04-29T02:55:25;12.90;99.90
13251;DHT22;6692;50.710;7.180;2023-04-29T02:57:26;12.90;99.90
13251;DHT22;6692;50.710;7.180;2023-04-29T02:59:26;12.90;99.90
13251;DHT22;6692;50.710;7.180;2023-04-29T03:01:27;13.00;99.90
13251;DHT22;6692;50.710;7.180;2023-04-29T03:03:28;12.90;99.90
13251;DHT22;6692;50.710;7.180;2023-04-29T03:05:29;12.90;99.90
13251;DHT22;6692;50.710;7.180;2023-04-29T03:07:30;12.90;99.90
13251;DHT22;6692;50.710;7.180;2023-04-29T03:09:30;12.90;99.90
13251;DHT22;6692;50.710;7.180;2023-04-29T03:11:31;12.90;99.90
13251;DHT22;6692;50.710;7.180;2023-04-29T03:13:32;12.90;99.90
13251;DHT22;6692;50.710;7.180;2023-04-29T03:15:32;12.90;99.90
13251;DHT22;6692;50.710;7.180;2023-04-29T03:17:33;12.90;99.90
13251;DHT22;6692;50.710;7.180;2023-04-29T03:19:34;12.90;99.90
13251;DHT22;6692;50.710;7.180;2023-04-29T03:21:34;12.80;99.90
13251;DHT22;6692;50.710;7.180;2023-04-29T03:23:35;12.80;99.90
13251;DHT22;6692;50.710;7.180;2023-04-29T03:25:36;12.80;99.90
13251;DHT22;6692;50.710;7.180;2023-04-29T03:27:36;12.90;99.90
13251;DHT22;6692;50.710;7.180;2023-04-29T03:29:37;12.90;99.90
13251;DHT22;6692;50.710;7.180;2023-04-29T03:31:38;12.80;99.90
13251;DHT22;6692;50.710;7.180;2023-04-29T03:33:39;12.80;99.90
13251;DHT22;6692;50.710;7.180;2023-04-29T03:35:40;12.80;99.90
13251;DHT22;6692;50.710;7.180;2023-04-29T03:37:40;12.80;99.90
13251;DHT22;6692;50.710;7.180;2023-04-29T03:39:41;12.80;99.90
13251;DHT22;6692;50.710;7.180;2023-04-29T03:41:42;12.80;99.90
13251;DHT22;6692;50.710;7.180;2023-04-29T03:43:42;12.80;99.90
13251;DHT22;6692;50.710;7.180;2023-04-29T03:45:44;12.70;99.90
13251;DHT22;6692;50.710;7.180;2023-04-29T03:47:44;12.60;99.90
13251;DHT22;6692;50.710;7.180;2023-04-29T03:49:45;12.60;99.90
13251;DHT22;6692;50.710;7.180;2023-04-29T03:51:46;12.50;99.90
13251;DHT22;6692;50.710;7.180;2023-04-29T03:53:46;12.50;99.90
13251;DHT22;6692;50.710;7.180;2023-04-29T03:55:47;12.40;99.90
13251;DHT22;6692;50.710;7.180;2023-04-29T03:57:48;12.40;99.90
13251;DHT22;6692;50.710;7.180;2023-04-29T03:59:49;12.40;99.90
13251;DHT22;6692;50.710;7.180;2023-04-29T04:01:50;12.40;99.90
13251;DHT22;6692;50.710;7.180;2023-04-29T04:03:50;12.40;99.90
13251;DHT22;6692;50.710;7.180;2023-04-29T04:05:51;12.30;99.90
13251;DHT22;6692;50.710;7.180;2023-04-29T04:07:52;12.30;99.90
13251;DHT22;6692;50.710;7.180;2023-04-29T04:09:53;12.30;99.90
13251;DHT22;6692;50.710;7.180;2023-04-29T04:11:54;12.20;99.90
13251;DHT22;6692;50.710;7.180;2023-04-29T04:13:55;12.10;99.90
13251;DHT22;6692;50.710;7.180;2023-04-29T04:15:56;12.10;99.90
13251;DHT22;6692;50.710;7.180;2023-04-29T04:17:56;12.00;99.90
13251;DHT22;6692;50.710;7.180;2023-04-29T04:19:58;12.00;99.90
13251;DHT22;6692;50.710;7.180;2023-04-29T04:21:58;11.90;99.90
13251;DHT22;6692;50.710;7.180;2023-04-29T04:24:00;11.90;99.90
13251;DHT22;6692;50.710;7.180;2023-04-29T04:26:00;11.80;99.90
13251;DHT22;6692;50.710;7.180;2023-04-29T04:28:01;11.80;99.90
13251;DHT22;6692;50.710;7.180;2023-04-29T04:30:03;11.80;99.90
13251;DHT22;6692;50.710;7.180;2023-04-29T04:32:04;11.70;99.90
13251;DHT22;6692;50.710;7.180;2023-04-29T04:34:06;11.70;99.90
13251;DHT22;6692;50.710;7.180;2023-04-29T04:36:07;11.70;99.90
13251;DHT22;6692;50.710;7.180;2023-04-29T04:38:07;11.70;99.90
13251;DHT22;6692;50.710;7.180;2023-04-29T04:40:09;11.70;99.90
13251;DHT22;6692;50.710;7.180;2023-04-29T04:42:10;11.60;99.90
13251;DHT22;6692;50.710;7.180;2023-04-29T04:44:11;11.60;99.90
13251;DHT22;6692;50.710;7.180;2023-04-29T04:46:12;11.60;99.90
13251;DHT22;6692;50.710;7.180;2023-04-29T04:48:13;11.50;99.90
13251;DHT22;6692;50.710;7.180;2023-04-29T04:50:14;11.50;99.90
13251;DHT22;6692;50.710;7.180;2023-04-29T04:52:14;11.50;99.90
13251;DHT22;6692;50.710;7.180;2023-04-29T04:54:15;11.50;99.90
13251;DHT22;6692;50.710;7.180;2023-04-29T04:56:16;11.50;99.90
13251;DHT22;6692;50.710;7.180;2023-04-29T04:58:16;11.50;99.90
13251;DHT22;6692;50.710;7.180;2023-04-29T05:00:18;11.40;99.90
13251;DHT22;6692;50.710;7.180;2023-04-29T05:02:19;11.40;99.90
13251;DHT22;6692;50.710;7.180;2023-04-29T05:04:19;11.40;99.90
13251;DHT22;6692;50.710;7.180;2023-04-29T05:06:21;11.40;99.90
13251;DHT22;6692;50.710;7.180;2023-04-29T05:08:21;11.30;99.90
13251;DHT22;6692;50.710;7.180;2023-04-29T05:10:22;11.30;99.90
13251;DHT22;6692;50.710;7.180;2023-04-29T05:12:23;11.30;99.90
13251;DHT22;6692;50.710;7.180;2023-04-29T05:14:24;11.30;99.90
13251;DHT22;6692;50.710;7.180;2023-04-29T05:16:24;11.30;99.90
13251;DHT22;6692;50.710;7.180;2023-04-29T05:18:25;11.30;99.90
13251;DHT22;6692;50.710;7.180;2023-04-29T05:20:25;11.20;99.90
13251;DHT22;6692;50.710;7.180;2023-04-29T05:22:27;11.10;99.90
13251;DHT22;6692;50.710;7.180;2023-04-29T05:24:27;11.10;99.90
13251;DHT22;6692;50.710;7.180;2023-04-29T05:26:28;11.10;99.90
13251;DHT22;6692;50.710;7.180;2023-04-29T05:28:29;11.10;99.90
13251;DHT22;6692;50.710;7.180;2023-04-29T05:30:30;11.10;99.90
13251;DHT22;6692;50.710;7.180;2023-04-29T05:32:31;11.00;99.90
13251;DHT22;6692;50.710;7.180;2023-04-29T05:34:31;11.00;99.90
13251;DHT22;6692;50.710;7.180;2023-04-29T05:36:33;11.00;99.90
13251;DHT22;6692;50.710;7.180;2023-04-29T05:38:33;11.00;99.90
13251;DHT22;6692;50.710;7.180;2023-04-29T05:40:34;11.00;99.90
13251;DHT22;6692;50.710;7.180;2023-04-29T05:42:35;11.00;99.90
13251;DHT22;6692;50.710;7.180;2023-04-29T05:44:36;10.90;99.90
13251;DHT22;6692;50.710;7.180;2023-04-29T05:46:37;10.90;99.90
13251;DHT22;6692;50.710;7.180;2023-04-29T05:48:38;10.90;99.90
13251;DHT22;6692;50.710;7.180;2023-04-29T05:50:39;10.90;99.90
13251;DHT22;6692;50.710;7.180;2023-04-29T05:52:39;10.90;99.90
13251;DHT22;6692;50.710;7.180;2023-04-29T05:54:40;10.90;99.90
13251;DHT22;6692;50.710;7.180;2023-04-29T05:56:41;10.90;99.90
13251;DHT22;6692;50.710;7.180;2023-04-29T05:58:41;11.00;99.90
13251;DHT22;6692;50.710;7.180;2023-04-29T06:00:42;11.00;99.90
13251;DHT22;6692;50.710;7.180;2023-04-29T06:02:43;11.00;99.90
13251;DHT22;6692;50.710;7.180;2023-04-29T06:04:43;11.00;99.90
13251;DHT22;6692;50.710;7.180;2023-04-29T06:06:44;11.00;99.90
13251;DHT22;6692;50.710;7.180;2023-04-29T06:08:45;10.90;99.90
13251;DHT22;6692;50.710;7.180;2023-04-29T06:10:46;10.90;99.90
13251;DHT22;6692;50.710;7.180;2023-04-29T06:12:47;10.80;99.90
13251;DHT22;6692;50.710;7.180;2023-04-29T06:14:47;10.90;99.90
13251;DHT22;6692;50.710;7.180;2023-04-29T06:16:49;10.80;99.90
13251;DHT22;6692;50.710;7.180;2023-04-29T06:18:49;10.80;99.90
13251;DHT22;6692;50.710;7.180;2023-04-29T06:20:51;10.80;99.90
13251;DHT22;6692;50.710;7.180;2023-04-29T06:22:51;10.80;99.90
13251;DHT22;6692;50.710;7.180;2023-04-29T06:24:53;10.90;99.90
13251;DHT22;6692;50.710;7.180;2023-04-29T06:26:53;10.90;99.90
13251;DHT22;6692;50.710;7.180;2023-04-29T06:28:55;11.10;99.90
13251;DHT22;6692;50.710;7.180;2023-04-29T06:30:55;11.10;99.90
13251;DHT22;6692;50.710;7.180;2023-04-29T06:32:56;11.10;99.90
13251;DHT22;6692;50.710;7.180;2023-04-29T06:34:58;11.00;99.90
13251;DHT22;6692;50.710;7.180;2023-04-29T06:36:58;11.00;99.90
13251;DHT22;6692;50.710;7.180;2023-04-29T06:39:00;11.10;99.90
13251;DHT22;6692;50.710;7.180;2023-04-29T06:41:00;11.00;99.90
13251;DHT22;6692;50.710;7.180;2023-04-29T06:43:01;11.00;99.90
13251;DHT22;6692;50.710;7.180;2023-04-29T06:45:02;11.00;99.90
13251;DHT22;6692;50.710;7.180;2023-04-29T06:47:02;11.00;99.90
13251;DHT22;6692;50.710;7.180;2023-04-29T06:49:03;11.00;99.90
13251;DHT22;6692;50.710;7.180;2023-04-29T06:51:04;11.10;99.90
13251;DHT22;6692;50.710;7.180;2023-04-29T06:53:05;11.10;99.90
13251;DHT22;6692;50.710;7.180;2023-04-29T06:55:07;11.00;99.90
13251;DHT22;6692;50.710;7.180;2023-04-29T06:57:08;11.00;99.90
13251;DHT22;6692;50.710;7.180;2023-04-29T06:59:09;11.00;99.90
13251;DHT22;6692;50.710;7.180;2023-04-29T07:01:09;11.00;99.90
13251;DHT22;6692;50.710;7.180;2023-04-29T07:03:10;11.10;99.90
13251;DHT22;6692;50.710;7.180;2023-04-29T07:05:11;11.10;99.90
13251;DHT22;6692;50.710;7.180;2023-04-29T07:07:12;11.10;99.90
13251;DHT22;6692;50.710;7.180;2023-04-29T07:09:13;11.10;99.90
13251;DHT22;6692;50.710;7.180;2023-04-29T07:11:15;11.20;99.90
13251;DHT22;6692;50.710;7.180;2023-04-29T07:13:16;11.20;99.90
13251;DHT22;6692;50.710;7.180;2023-04-29T07:15:17;11.20;99.90
13251;DHT22;6692;50.710;7.180;2023-04-29T07:17:18;11.20;99.90
13251;DHT22;6692;50.710;7.180;2023-04-29T07:19:18;11.20;99.90
13251;DHT22;6692;50.710;7.180;2023-04-29T07:21:19;11.20;99.90
13251;DHT22;6692;50.710;7.180;2023-04-29T07:23:20;11.20;99.90
13251;DHT22;6692;50.710;7.180;2023-04-29T07:25:21;11.20;99.90
13251;DHT22;6692;50.710;7.180;2023-04-29T07:27:22;11.20;99.90
13251;DHT22;6692;50.710;7.180;2023-04-29T07:29:22;11.10;99.90
13251;DHT22;6692;50.710;7.180;2023-04-29T07:31:23;11.10;99.90
13251;DHT22;6692;50.710;7.180;2023-04-29T07:33:23;11.10;99.90
13251;DHT22;6692;50.710;7.180;2023-04-29T07:35:24;11.10;99.90
13251;DHT22;6692;50.710;7.180;2023-04-29T07:37:25;11.10;99.90
13251;DHT22;6692;50.710;7.180;2023-04-29T07:39:25;11.10;99.90
13251;DHT22;6692;50.710;7.180;2023-04-29T07:41:27;11.10;99.90
13251;DHT22;6692;50.710;7.180;2023-04-29T07:43:27;11.10;99.90
13251;DHT22;6692;50.710;7.180;2023-04-29T07:45:28;11.10;99.90
13251;DHT22;6692;50.710;7.180;2023-04-29T07:47:29;11.20;99.90
13251;DHT22;6692;50.710;7.180;2023-04-29T07:49:29;11.20;99.90
13251;DHT22;6692;50.710;7.180;2023-04-29T07:51:30;11.20;99.90
13251;DHT22;6692;50.710;7.180;2023-04-29T07:53:31;11.20;99.90
13251;DHT22;6692;50.710;7.180;2023-04-29T07:55:31;11.10;99.90
13251;DHT22;6692;50.710;7.180;2023-04-29T07:57:32;11.10;99.90
13251;DHT22;6692;50.710;7.180;2023-04-29T07:59:33;11.10;99.90
13251;DHT22;6692;50.710;7.180;2023-04-29T08:01:33;11.20;99.90
13251;DHT22;6692;50.710;7.180;2023-04-29T08:03:35;11.30;99.90
13251;DHT22;6692;50.710;7.180;2023-04-29T08:05:36;11.40;99.90
13251;DHT22;6692;50.710;7.180;2023-04-29T08:07:37;11.30;99.90
13251;DHT22;6692;50.710;7.180;2023-04-29T08:09:37;11.40;99.90
13251;DHT22;6692;50.710;7.180;2023-04-29T08:11:39;11.50;99.90
13251;DHT22;6692;50.710;7.180;2023-04-29T08:13:39;11.50;99.90
13251;DHT22;6692;50.710;7.180;2023-04-29T08:15:41;11.60;99.90
13251;DHT22;6692;50.710;7.180;2023-04-29T08:17:41;11.60;99.90
13251;DHT22;6692;50.710;7.180;2023-04-29T08:19:42;11.60;99.90
13251;DHT22;6692;50.710;7.180;2023-04-29T08:21:43;11.60;99.90
13251;DHT22;6692;50.710;7.180;2023-04-29T08:23:44;11.60;99.90
13251;DHT22;6692;50.710;7.180;2023-04-29T08:25:44;11.70;99.90
13251;DHT22;6692;50.710;7.180;2023-04-29T08:27:45;11.70;99.90
13251;DHT22;6692;50.710;7.180;2023-04-29T08:29:45;11.80;99.90
13251;DHT22;6692;50.710;7.180;2023-04-29T08:31:46;11.80;99.90
13251;DHT22;6692;50.710;7.180;2023-04-29T08:33:47;11.80;99.90
13251;DHT22;6692;50.710;7.180;2023-04-29T08:35:48;11.80;99.90
13251;DHT22;6692;50.710;7.180;2023-04-29T08:37:49;11.90;99.90
13251;DHT22;6692;50.710;7.180;2023-04-29T08:39:49;11.90;99.90
13251;DHT22;6692;50.710;7.180;2023-04-29T08:41:51;12.10;99.90
13251;DHT22;6692;50.710;7.180;2023-04-29T08:43:52;12.20;99.90
13251;DHT22;6692;50.710;7.180;2023-04-29T08:45:53;12.20;99.90
13251;DHT22;6692;50.710;7.180;2023-04-29T08:47:54;12.30;99.90
13251;DHT22;6692;50.710;7.180;2023-04-29T08:49:54;12.30;99.90
13251;DHT22;6692;50.710;7.180;2023-04-29T08:51:55;12.40;99.90
13251;DHT22;6692;50.710;7.180;2023-04-29T08:53:56;12.50;99.90
13251;DHT22;6692;50.710;7.180;2023-04-29T08:55:57;12.50;99.90
13251;DHT22;6692;50.710;7.180;2023-04-29T08:57:57;12.50;99.90
13251;DHT22;6692;50.710;7.180;2023-04-29T08:59:58;12.50;99.90
13251;DHT22;6692;50.710;7.180;2023-04-29T09:01:58;12.50;99.90
13251;DHT22;6692;50.710;7.180;2023-04-29T09:04:08;12.30;99.90
13251;DHT22;6692;50.710;7.180;2023-04-29T09:06:04;12.30;99.90
13251;DHT22;6692;50.710;7.180;2023-04-29T09:08:05;12.30;99.90
13251;DHT22;6692;50.710;7.180;2023-04-29T09:10:07;12.30;99.90
13251;DHT22;6692;50.710;7.180;2023-04-29T09:12:08;12.30;99.90
13251;DHT22;6692;50.710;7.180;2023-04-29T09:14:09;12.20;99.90
13251;DHT22;6692;50.710;7.180;2023-04-29T09:16:10;12.30;99.90
13251;DHT22;6692;50.710;7.180;2023-04-29T09:18:10;12.30;99.90
13251;DHT22;6692;50.710;7.180;2023-04-29T09:20:26;12.20;99.90
13251;DHT22;6692;50.710;7.180;2023-04-29T09:22:27;12.20;99.90
13251;DHT22;6692;50.710;7.180;2023-04-29T09:24:28;12.20;99.90
13251;DHT22;6692;50.710;7.180;2023-04-29T09:26:33;12.30;99.90
13251;DHT22;6692;50.710;7.180;2023-04-29T09:28:32;12.40;99.90
13251;DHT22;6692;50.710;7.180;2023-04-29T09:30:33;12.50;99.90
13251;DHT22;6692;50.710;7.180;2023-04-29T09:32:35;12.50;99.90
13251;DHT22;6692;50.710;7.180;2023-04-29T09:34:35;12.50;99.90
13251;DHT22;6692;50.710;7.180;2023-04-29T09:36:43;12.50;99.90
13251;DHT22;6692;50.710;7.180;2023-04-29T09:38:52;12.50;99.90
13251;DHT22;6692;50.710;7.180;2023-04-29T09:40:50;12.60;99.90
13251;DHT22;6692;50.710;7.180;2023-04-29T09:42:51;12.80;99.90
13251;DHT22;6692;50.710;7.180;2023-04-29T09:44:52;12.70;99.90
13251;DHT22;6692;50.710;7.180;2023-04-29T09:47:00;12.90;99.90
13251;DHT22;6692;50.710;7.180;2023-04-29T09:49:00;12.90;99.90
13251;DHT22;6692;50.710;7.180;2023-04-29T09:51:01;13.00;99.90
13251;DHT22;6692;50.710;7.180;2023-04-29T09:53:02;13.00;99.90
13251;DHT22;6692;50.710;7.180;2023-04-29T09:55:04;13.10;99.90
13251;DHT22;6692;50.710;7.180;2023-04-29T09:57:03;13.10;99.90
13251;DHT22;6692;50.710;7.180;2023-04-29T09:59:06;13.10;99.90
13251;DHT22;6692;50.710;7.180;2023-04-29T10:01:08;13.00;99.90
13251;DHT22;6692;50.710;7.180;2023-04-29T10:03:08;13.00;99.90
13251;DHT22;6692;50.710;7.180;2023-04-29T10:05:09;13.00;99.90
13251;DHT22;6692;50.710;7.180;2023-04-29T10:07:13;13.00;99.90
13251;DHT22;6692;50.710;7.180;2023-04-29T10:09:13;13.00;99.90
13251;DHT22;6692;50.710;7.180;2023-04-29T10:11:15;13.00;99.90
13251;DHT22;6692;50.710;7.180;2023-04-29T10:13:15;13.00;99.90
13251;DHT22;6692;50.710;7.180;2023-04-29T10:17:40;13.10;99.90
13251;DHT22;6692;50.710;7.180;2023-04-29T10:19:51;13.20;99.90
13251;DHT22;6692;50.710;7.180;2023-04-29T10:21:53;13.10;99.90
13251;DHT22;6692;50.710;7.180;2023-04-29T10:23:53;13.10;99.90
13251;DHT22;6692;50.710;7.180;2023-04-29T10:25:54;13.00;99.90
13251;DHT22;6692;50.710;7.180;2023-04-29T10:27:54;12.90;99.90
13251;DHT22;6692;50.710;7.180;2023-04-29T10:29:55;12.80;99.90
13251;DHT22;6692;50.710;7.180;2023-04-29T10:31:56;12.70;99.90
13251;DHT22;6692;50.710;7.180;2023-04-29T10:33:57;12.70;99.90
13251;DHT22;6692;50.710;7.180;2023-04-29T10:35:57;12.60;99.90
13251;DHT22;6692;50.710;7.180;2023-04-29T10:37:57;12.50;99.90
13251;DHT22;6692;50.710;7.180;2023-04-29T10:40:00;12.40;99.90
13251;DHT22;6692;50.710;7.180;2023-04-29T10:41:59;12.40;99.90
13251;DHT22;6692;50.710;7.180;2023-04-29T10:43:59;12.30;99.90
13251;DHT22;6692;50.710;7.180;2023-04-29T10:46:19;12.40;99.90
13251;DHT22;6692;50.710;7.180;2023-04-29T10:48:21;12.50;99.90
13251;DHT22;6692;50.710;7.180;2023-04-29T10:50:21;12.50;99.90
13251;DHT22;6692;50.710;7.180;2023-04-29T10:52:22;12.50;99.90
13251;DHT22;6692;50.710;7.180;2023-04-29T10:54:23;12.50;99.90
13251;DHT22;6692;50.710;7.180;2023-04-29T10:56:34;12.50;99.90
13251;DHT22;6692;50.710;7.180;2023-04-29T10:58:42;12.60;99.90
13251;DHT22;6692;50.710;7.180;2023-04-29T11:00:44;12.70;99.90
13251;DHT22;6692;50.710;7.180;2023-04-29T11:02:44;12.70;99.90
13251;DHT22;6692;50.710;7.180;2023-04-29T11:06:58;12.90;99.90
13251;DHT22;6692;50.710;7.180;2023-04-29T11:09:02;13.00;99.90
13251;DHT22;6692;50.710;7.180;2023-04-29T11:11:03;13.00;99.90
13251;DHT22;6692;50.710;7.180;2023-04-29T11:15:16;12.90;99.90
13251;DHT22;6692;50.710;7.180;2023-04-29T11:17:17;13.00;99.90
13251;DHT22;6692;50.710;7.180;2023-04-29T11:19:18;12.90;99.90
13251;DHT22;6692;50.710;7.180;2023-04-29T11:21:18;12.80;99.90
13251;DHT22;6692;50.710;7.180;2023-04-29T11:23:19;12.90;99.90
13251;DHT22;6692;50.710;7.180;2023-04-29T11:25:20;12.80;99.90
13251;DHT22;6692;50.710;7.180;2023-04-29T11:27:21;12.80;99.90
13251;DHT22;6692;50.710;7.180;2023-04-29T11:29:21;12.80;99.90
13251;DHT22;6692;50.710;7.180;2023-04-29T11:31:24;12.90;99.90
13251;DHT22;6692;50.710;7.180;2023-04-29T11:33:23;12.90;99.90
13251;DHT22;6692;50.710;7.180;2023-04-29T11:35:23;12.90;99.90
13251;DHT22;6692;50.710;7.180;2023-04-29T11:37:24;12.90;99.90
13251;DHT22;6692;50.710;7.180;2023-04-29T11:39:25;12.90;99.90
13251;DHT22;6692;50.710;7.180;2023-04-29T11:41:25;12.90;99.90
13251;DHT22;6692;50.710;7.180;2023-04-29T11:43:26;12.90;99.90
13251;DHT22;6692;50.710;7.180;2023-04-29T11:45:27;12.90;99.90
13251;DHT22;6692;50.710;7.180;2023-04-29T11:47:28;12.90;99.90
13251;DHT22;6692;50.710;7.180;2023-04-29T11:49:30;12.90;99.90
13251;DHT22;6692;50.710;7.180;2023-04-29T11:51:31;12.90;99.90
13251;DHT22;6692;50.710;7.180;2023-04-29T11:53:31;12.90;99.90
13251;DHT22;6692;50.710;7.180;2023-04-29T11:55:32;12.80;99.90
13251;DHT22;6692;50.710;7.180;2023-04-29T11:57:33;12.80;99.90
13251;DHT22;6692;50.710;7.180;2023-04-29T11:59:33;12.90;99.90
13251;DHT22;6692;50.710;7.180;2023-04-29T12:01:35;12.90;99.90
13251;DHT22;6692;50.710;7.180;2023-04-29T12:03:35;12.90;99.90
13251;DHT22;6692;50.710;7.180;2023-04-29T12:05:36;13.00;99.90
13251;DHT22;6692;50.710;7.180;2023-04-29T12:07:37;13.00;99.90
13251;DHT22;6692;50.710;7.180;2023-04-29T12:09:41;13.00;99.90
13251;DHT22;6692;50.710;7.180;2023-04-29T12:11:41;13.00;99.90
13251;DHT22;6692;50.710;7.180;2023-04-29T12:13:42;12.90;99.90
13251;DHT22;6692;50.710;7.180;2023-04-29T12:15:44;12.80;99.90
13251;DHT22;6692;50.710;7.180;2023-04-29T12:17:44;12.90;99.90
13251;DHT22;6692;50.710;7.180;2023-04-29T12:19:45;12.80;99.90
13251;DHT22;6692;50.710;7.180;2023-04-29T12:21:47;12.80;99.90
13251;DHT22;6692;50.710;7.180;2023-04-29T12:23:47;12.70;99.90
13251;DHT22;6692;50.710;7.180;2023-04-29T12:25:52;12.60;99.90
13251;DHT22;6692;50.710;7.180;2023-04-29T12:27:57;12.60;99.90
13251;DHT22;6692;50.710;7.180;2023-04-29T12:29:55;12.70;99.90
13251;DHT22;6692;50.710;7.180;2023-04-29T12:31:55;12.60;99.90
13251;DHT22;6692;50.710;7.180;2023-04-29T12:33:56;12.60;99.90
13251;DHT22;6692;50.710;7.180;2023-04-29T12:35:57;12.50;99.90
13251;DHT22;6692;50.710;7.180;2023-04-29T12:37:58;12.50;99.90
13251;DHT22;6692;50.710;7.180;2023-04-29T12:39:59;12.50;99.90
13251;DHT22;6692;50.710;7.180;2023-04-29T12:41:59;12.50;99.90
13251;DHT22;6692;50.710;7.180;2023-04-29T12:44:00;12.50;99.90
13251;DHT22;6692;50.710;7.180;2023-04-29T12:46:03;12.50;99.90
13251;DHT22;6692;50.710;7.180;2023-04-29T12:48:04;12.40;99.90
13251;DHT22;6692;50.710;7.180;2023-04-29T12:50:06;12.40;99.90
13251;DHT22;6692;50.710;7.180;2023-04-29T12:52:07;12.40;99.90
13251;DHT22;6692;50.710;7.180;2023-04-29T12:54:07;12.40;99.90
13251;DHT22;6692;50.710;7.180;2023-04-29T12:56:10;12.40;99.90
13251;DHT22;6692;50.710;7.180;2023-04-29T12:58:09;12.40;99.90
13251;DHT22;6692;50.710;7.180;2023-04-29T13:00:11;12.40;99.90
13251;DHT22;6692;50.710;7.180;2023-04-29T13:02:12;12.40;99.90
13251;DHT22;6692;50.710;7.180;2023-04-29T13:04:13;12.30;99.90
13251;DHT22;6692;50.710;7.180;2023-04-29T13:06:14;12.30;99.90
13251;DHT22;6692;50.710;7.180;2023-04-29T13:08:15;12.30;99.90